Time;durP1;ratioP1;P1;durP2;ratioP2;P2;SDS_P1;SDS_P2;PMS_P1;PMS_P2;Temp;Humidity;BMP_temperature;BMP_pressure;BME280_temperature;BME280_humidity;BME280_pressure;Samples;Min_cycle;Max_cycle;Signal;HPM_P1;HPM_P2
2022/01/10 00:01:55;;;;;;;84.97;25.15;;;;;;;7.87;86.24;98776.78;5079231;28;20032;-21
2022/01/10 00:04:20;;;;;;;82.78;27.40;;;;;;;7.96;85.93;98775.38;5077564;28;20024;-20
2022/01/10 00:06:46;;;;;;;74.82;26.48;;;;;;;7.56;87.26;98786.72;5077177;28;20492;-22
2022/01/10 00:09:11;;;;;;;75.55;25.55;;;;;;;7.68;87.36;98791.19;5077237;28;20414;-21
2022/01/10 00:11:37;;;;;;;71.25;24.88;;;;;;;7.77;86.87;98787.19;5076153;28;20047;-21
2022/01/10 00:14:02;;;;;;;78.70;25.13;;;;;;;7.75;86.50;98778.63;5076961;28;20025;-20
2022/01/10 00:16:28;;;;;;;74.07;24.67;;;;;;;7.88;85.67;98775.72;5079339;28;20039;-21
2022/01/10 00:18:53;;;;;;;69.25;24.15;;;;;;;7.68;86.25;98772.63;5075642;28;20040;-20
2022/01/10 00:21:18;;;;;;;76.25;24.65;;;;;;;7.55;87.44;98782.44;5077361;28;20875;-21
2022/01/10 00:23:44;;;;;;;80.90;26.38;;;;;;;7.90;86.70;98786.91;5078185;28;20040;-21
2022/01/10 00:26:09;;;;;;;69.65;24.75;;;;;;;7.80;86.20;98782.19;5060441;28;20047;-22
2022/01/10 00:28:35;;;;;;;84.35;26.33;;;;;;;7.67;86.86;98776.34;5056811;28;20028;-21
2022/01/10 00:31:00;;;;;;;73.45;24.55;;;;;;;7.68;86.71;98775.28;5078071;28;20069;-21
2022/01/10 00:33:26;;;;;;;85.85;26.58;;;;;;;7.79;86.10;98769.97;5078394;28;20064;-21
2022/01/10 00:35:51;;;;;;;91.95;36.75;;;;;;;7.59;87.46;98754.41;5070811;28;20547;-20
2022/01/10 00:38:17;;;;;;;111.82;55.80;;;;;;;7.44;88.39;98762.84;5067956;28;20065;-21
2022/01/10 00:40:42;;;;;;;118.47;46.20;;;;;;;7.62;88.02;98764.56;5067554;28;20024;-20
2022/01/10 00:43:16;;;;;;;101.75;33.65;;;;;;;7.80;87.48;98760.97;5067375;28;20480;-20
2022/01/10 00:45:42;;;;;;;96.45;29.05;;;;;;;7.79;87.18;98763.88;5075782;28;20020;-20
2022/01/10 00:48:07;;;;;;;84.30;25.83;;;;;;;7.76;86.28;98740.44;5060393;28;20214;-20
2022/01/10 00:50:33;;;;;;;85.70;33.88;;;;;;;7.68;87.22;98751.41;5076604;28;20534;-21
2022/01/10 00:52:59;;;;;;;76.63;32.58;;;;;;;7.77;87.23;98748.16;5077375;28;20032;-21
2022/01/10 00:55:24;;;;;;;101.20;42.65;;;;;;;7.88;85.86;98735.13;5058738;28;20097;-20
2022/01/10 00:57:50;;;;;;;83.00;32.63;;;;;;;8.10;85.38;98745.91;5078268;28;20025;-21
2022/01/10 01:00:16;;;;;;;94.68;39.92;;;;;;;8.14;84.30;98742.56;5078810;28;20506;-20
2022/01/10 01:02:41;;;;;;;81.70;42.70;;;;;;;7.68;86.11;98724.88;5063794;28;20115;-20
2022/01/10 01:05:09;;;;;;;108.50;51.28;;;;;;;7.58;87.45;98744.84;5077802;28;20016;-21
2022/01/10 01:07:35;;;;;;;126.32;59.55;;;;;;;7.39;87.89;98716.81;5075146;28;20103;-20
2022/01/10 01:10:26;;;;;;;182.32;94.60;;;;;;;7.40;88.46;98729.06;5069620;28;20119;-21
2022/01/10 01:12:57;;;;;;;;;;;;;;;7.31;88.84;98741.03;5087809;28;20043;-20
2022/01/10 01:15:26;;;;;;;64.65;27.70;;;;;;;7.34;88.54;98727.31;5087528;28;19915;-20
2022/01/10 01:25:45;;;;;;;63.42;24.30;;;;;;;7.95;85.70;98741.13;5087207;28;20131;-21
2022/01/10 01:28:10;;;;;;;59.35;22.10;;;;;;;7.74;86.94;98739.84;5087587;28;20990;-20
2022/01/10 01:30:36;;;;;;;69.32;24.50;;;;;;;7.75;86.42;98736.19;5088837;28;20039;-20
2022/01/10 01:33:01;;;;;;;70.90;25.40;;;;;;;7.87;86.00;98736.13;5091211;28;20027;-20
2022/01/10 01:35:27;;;;;;;71.40;24.75;;;;;;;7.77;86.09;98726.94;5091416;28;20027;-20
2022/01/10 01:37:53;;;;;;;65.97;23.63;;;;;;;7.59;86.65;98727.88;5091559;28;20036;-20
2022/01/10 01:40:20;;;;;;;66.78;24.20;;;;;;;7.57;86.75;98724.66;5091575;28;20024;-20
2022/01/10 01:42:47;;;;;;;81.13;25.42;;;;;;;7.53;87.41;98718.19;5091361;28;20508;-20
2022/01/10 01:45:13;;;;;;;70.85;25.40;;;;;;;7.92;85.89;98717.69;5091639;28;20085;-20
2022/01/10 01:47:38;;;;;;;68.28;25.52;;;;;;;7.86;85.63;98711.44;5091109;28;20035;-20
2022/01/10 01:50:05;;;;;;;68.43;23.13;;;;;;;7.85;85.59;98712.50;5056039;28;20035;-20
2022/01/10 01:52:30;;;;;;;81.22;35.17;;;;;;;7.78;86.28;98714.47;5072793;28;20406;-20
2022/01/10 01:54:56;;;;;;;63.72;25.50;;;;;;;7.77;86.42;98710.22;5090895;28;20475;-22
2022/01/10 01:57:21;;;;;;;60.63;23.67;;;;;;;7.44;87.79;98708.97;5072827;28;20103;-21
2022/01/10 01:59:47;;;;;;;67.82;24.90;;;;;;;7.26;89.26;98711.75;5090840;28;20035;-21
2022/01/10 02:02:12;;;;;;;75.55;27.00;;;;;;;7.34;89.48;98698.94;5072796;28;20032;-21
2022/01/10 02:04:38;;;;;;;66.47;26.45;;;;;;;7.33;89.90;98699.16;5090567;28;20041;-21
2022/01/10 02:07:04;;;;;;;66.38;24.55;;;;;;;7.48;88.65;98688.91;5090808;28;20024;-20
2022/01/10 02:09:30;;;;;;;67.07;27.08;;;;;;;7.71;87.44;98681.97;5090712;28;20036;-20
2022/01/10 02:11:56;;;;;;;69.53;24.15;;;;;;;7.57;87.49;98674.25;5090821;28;20858;-21
2022/01/10 02:14:21;;;;;;;73.38;29.90;;;;;;;7.57;88.59;98694.66;5090697;28;20024;-20
2022/01/10 02:16:54;;;;;;;75.68;30.92;;;;;;;7.55;88.60;98683.47;5090503;28;20036;-20
2022/01/10 02:19:19;;;;;;;64.63;27.23;;;;;;;7.75;87.20;98689.22;5090055;28;20067;-20
2022/01/10 02:21:45;;;;;;;71.38;27.77;;;;;;;7.70;86.94;98691.75;5072272;28;20032;-21
2022/01/10 02:24:10;;;;;;;72.57;26.67;;;;;;;7.65;87.46;98686.34;5090449;28;20454;-21
2022/01/10 02:26:37;;;;;;;66.97;26.08;;;;;;;7.75;86.92;98669.84;5090568;28;20039;-20
2022/01/10 02:29:03;;;;;;;67.85;26.35;;;;;;;7.67;86.95;98686.13;5090297;28;20118;-21
2022/01/10 02:31:29;;;;;;;62.58;24.13;;;;;;;7.74;87.22;98684.13;5090758;28;20031;-20
2022/01/10 02:33:57;;;;;;;74.32;24.00;;;;;;;7.41;87.23;98670.44;5090079;28;20032;-21
2022/01/10 02:36:27;;;;;;;73.20;24.10;;;;;;;7.38;88.47;98680.72;5090497;28;20035;-21
2022/01/10 02:38:52;;;;;;;69.00;24.35;;;;;;;7.59;87.42;98685.44;5090363;28;20036;-20
2022/01/10 02:41:28;;;;;;;75.15;25.38;;;;;;;7.64;87.23;98682.06;5089543;28;20396;-20
2022/01/10 02:43:54;;;;;;;78.85;28.15;;;;;;;7.76;86.94;98685.50;5090140;28;20036;-20
2022/01/10 02:46:19;;;;;;;74.22;29.52;;;;;;;7.46;87.59;98664.47;5089992;28;20037;-20
2022/01/10 02:48:45;;;;;;;69.13;23.63;;;;;;;7.70;87.51;98669.72;5071518;28;20119;-20
2022/01/10 02:51:10;;;;;;;67.18;23.77;;;;;;;7.66;87.31;98679.97;5089635;28;20035;-21
2022/01/10 02:53:36;;;;;;;58.03;22.23;;;;;;;7.23;89.89;98676.72;5071744;28;20096;-20
2022/01/10 02:56:02;;;;;;;67.03;24.23;;;;;;;7.24;90.17;98682.81;5090009;28;20435;-20
2022/01/10 02:58:27;;;;;;;68.95;26.40;;;;;;;7.31;90.25;98683.47;5089740;28;20134;-20
2022/01/10 03:00:53;;;;;;;67.43;27.27;;;;;;;7.64;88.89;98684.72;5089673;28;20036;-21
2022/01/10 03:03:18;;;;;;;63.30;24.17;;;;;;;7.44;87.93;98669.19;5089929;28;20061;-21
2022/01/10 03:05:43;;;;;;;60.33;25.30;;;;;;;7.75;88.17;98691.88;5089816;28;20032;-21
2022/01/10 03:08:09;;;;;;;67.25;25.75;;;;;;;7.44;88.82;98693.06;5090035;28;20514;-21
2022/01/10 03:10:34;;;;;;;62.72;24.95;;;;;;;7.37;89.12;98685.22;5089965;28;20036;-20
2022/01/10 03:13:00;;;;;;;57.13;22.83;;;;;;;7.42;88.95;98701.25;5089542;28;20032;-21
2022/01/10 03:15:25;;;;;;;63.83;22.95;;;;;;;7.33;89.54;98691.22;5089247;28;20025;-20
2022/01/10 03:17:51;;;;;;;60.15;23.35;;;;;;;7.57;88.52;98695.47;5067880;28;20041;-20
2022/01/10 03:20:16;;;;;;;61.60;23.50;;;;;;;7.63;87.23;98696.38;5069255;28;20400;-20
2022/01/10 03:22:42;;;;;;;60.05;22.52;;;;;;;7.79;86.99;98695.66;5069149;28;20035;-20
2022/01/10 03:25:08;;;;;;;60.60;22.15;;;;;;;7.64;87.60;98698.81;5067600;28;20427;-20
2022/01/10 03:27:33;;;;;;;63.55;23.10;;;;;;;7.82;86.62;98700.47;5069023;28;20027;-22
2022/01/10 03:29:58;;;;;;;60.42;23.77;;;;;;;7.88;86.85;98703.25;5068994;28;20086;-20
2022/01/10 03:32:25;;;;;;;70.53;23.88;;;;;;;7.93;86.47;98700.72;5069273;28;20497;-20
2022/01/10 03:34:50;;;;;;;63.35;22.75;;;;;;;7.70;87.28;98690.94;5068874;28;20038;-20
2022/01/10 03:37:16;;;;;;;61.05;22.63;;;;;;;7.70;86.92;98690.94;5068669;28;20404;-20
2022/01/10 03:39:41;;;;;;;66.57;24.13;;;;;;;7.43;88.03;98697.53;5067585;28;20028;-20
2022/01/10 03:42:06;;;;;;;68.47;23.88;;;;;;;7.50;88.34;98697.44;5068765;28;20047;-20
2022/01/10 03:44:32;;;;;;;68.20;23.85;;;;;;;7.44;88.12;98685.13;5068559;28;20063;-21
2022/01/10 03:46:57;;;;;;;66.55;22.48;;;;;;;7.26;88.82;98690.53;5068370;28;20029;-20
2022/01/10 03:49:26;;;;;;;58.05;22.92;;;;;;;7.31;89.39;98706.56;5068706;28;20024;-21
2022/01/10 03:51:51;;;;;;;59.30;22.70;;;;;;;7.23;89.97;98700.56;5068419;28;20479;-20
2022/01/10 03:54:17;;;;;;;61.55;22.25;;;;;;;7.29;89.71;98712.06;5067522;28;20025;-21
2022/01/10 03:56:42;;;;;;;70.40;24.25;;;;;;;7.27;89.43;98708.84;5068346;28;20036;-20
2022/01/10 03:59:08;;;;;;;63.45;23.77;;;;;;;7.71;87.65;98697.88;5067853;28;20032;-20
2022/01/10 04:01:38;;;;;;;62.65;24.05;;;;;;;7.89;86.61;98720.81;5066931;28;20465;-20
2022/01/10 04:04:03;;;;;;;59.33;23.88;;;;;;;7.92;86.14;98721.13;5068160;28;20086;-20
2022/01/10 04:06:29;;;;;;;69.47;25.05;;;;;;;8.10;85.46;98708.75;5068265;28;20054;-20
2022/01/10 04:08:54;;;;;;;72.97;24.80;;;;;;;8.09;85.61;98723.06;5068191;28;20909;-20
2022/01/10 04:11:20;;;;;;;64.53;25.27;;;;;;;7.88;86.02;98729.81;5066409;28;20457;-20
2022/01/10 04:13:45;;;;;;;72.38;30.45;;;;;;;8.12;84.32;98706.66;5068015;28;20032;-21
2022/01/10 04:16:11;;;;;;;75.45;30.52;;;;;;;8.00;85.17;98720.75;5068247;28;20545;-21
2022/01/10 04:18:36;;;;;;;71.47;30.63;;;;;;;7.97;85.61;98717.78;5078478;28;20047;-20
2022/01/10 04:21:02;;;;;;;77.32;31.42;;;;;;;7.83;86.08;98733.97;5070058;28;20119;-21
2022/01/10 04:23:27;;;;;;;93.00;36.83;;;;;;;7.87;86.33;98734.31;5088410;28;20137;-21
2022/01/10 04:25:53;;;;;;;66.78;29.30;;;;;;;8.04;85.56;98729.88;5088074;28;20020;-20
2022/01/10 04:28:18;;;;;;;65.03;24.90;;;;;;;7.99;85.83;98728.97;5087472;28;20028;-21
2022/01/10 04:30:43;;;;;;;60.88;23.55;;;;;;;8.24;84.60;98736.63;5087247;28;20046;-20
2022/01/10 04:33:10;;;;;;;55.47;21.90;;;;;;;7.89;85.63;98739.41;5087722;28;20036;-21
2022/01/10 04:35:36;;;;;;;54.15;21.20;;;;;;;7.94;85.70;98736.84;5088125;28;20047;-21
2022/01/10 04:38:02;;;;;;;58.25;22.38;;;;;;;8.08;85.01;98740.03;5069588;28;20067;-21
2022/01/10 04:40:27;;;;;;;59.42;22.05;;;;;;;8.20;84.44;98748.78;5087846;28;20407;-20
2022/01/10 04:42:53;;;;;;;55.15;21.15;;;;;;;8.10;84.32;98732.66;5069364;28;20085;-20
2022/01/10 04:45:18;;;;;;;55.95;21.30;;;;;;;7.92;85.41;98752.97;5087527;28;20031;-20
2022/01/10 04:47:44;;;;;;;52.90;20.90;;;;;;;8.09;85.27;98757.56;5087817;28;20126;-20
2022/01/10 04:52:38;;;;;;;57.75;22.42;;;;;;;8.22;84.06;98736.06;5069960;28;20027;-20
2022/01/10 04:55:04;;;;;;;53.08;21.08;;;;;;;8.28;84.58;98756.38;5087330;28;20027;-20
2022/01/10 04:57:29;;;;;;;60.55;21.77;;;;;;;8.15;84.57;98751.31;5087329;28;20111;-20
2022/01/10 04:59:58;;;;;;;56.17;21.80;;;;;;;7.94;85.83;98752.75;5087349;28;20062;-20
2022/01/10 05:02:23;;;;;;;62.10;22.98;;;;;;;7.82;86.23;98736.84;5069444;28;20506;-20
2022/01/10 05:04:48;;;;;;;61.00;25.52;;;;;;;7.55;87.27;98725.94;5087137;28;20016;-20
2022/01/10 05:07:14;;;;;;;59.25;24.17;;;;;;;8.02;86.56;98747.88;5087424;28;20541;-20
2022/01/10 05:09:39;;;;;;;56.20;22.00;;;;;;;7.90;86.81;98754.28;5069174;28;20039;-20
2022/01/10 05:12:05;;;;;;;60.30;22.52;;;;;;;7.73;86.75;98727.66;5087187;28;20032;-20
2022/01/10 05:14:32;;;;;;;65.15;28.52;;;;;;;7.80;86.97;98723.00;5087570;28;20027;-20
2022/01/10 05:16:58;;;;;;;81.88;33.38;;;;;;;8.01;87.49;98753.44;5087123;28;20068;-21
2022/01/10 05:19:23;;;;;;;83.18;37.25;;;;;;;7.94;88.00;98753.56;5086985;28;20524;-20
2022/01/10 05:21:49;;;;;;;66.25;28.33;;;;;;;7.94;87.59;98750.09;5087024;28;20032;-20
2022/01/10 05:24:14;;;;;;;130.07;52.15;;;;;;;7.73;88.34;98749.66;5087150;28;20035;-20
2022/01/10 05:26:40;;;;;;;145.60;56.88;;;;;;;7.92;87.93;98757.50;5086980;28;20039;-20
2022/01/10 05:29:05;;;;;;;103.93;44.40;;;;;;;7.88;88.59;98754.50;5087190;28;20816;-20
2022/01/10 05:31:33;;;;;;;83.25;35.60;;;;;;;8.08;87.90;98755.97;5087156;28;20043;-20
2022/01/10 05:33:59;;;;;;;;;;;;;;;7.98;87.89;98761.88;5087682;28;20089;-20
2022/01/10 05:36:24;;;;;;;240.52;102.22;;;;;;;7.85;89.44;98749.66;5087227;28;19912;-21
2022/01/10 05:38:50;;;;;;;86.40;36.53;;;;;;;7.48;91.16;98757.88;5087112;28;20036;-19
2022/01/10 05:41:15;;;;;;;68.65;33.03;;;;;;;7.32;93.63;98753.25;5086732;28;20720;-20
2022/01/10 05:43:41;;;;;;;57.80;26.17;;;;;;;7.27;94.96;98764.53;5087016;28;20077;-20
2022/01/10 05:46:11;;;;;;;84.30;40.40;;;;;;;7.07;96.20;98750.78;5087155;28;20028;-21
2022/01/10 05:48:39;;;;;;;112.95;51.72;;;;;;;7.02;97.05;98754.94;5086982;28;20472;-20
2022/01/10 05:51:05;;;;;;;178.85;65.80;;;;;;;6.99;97.46;98762.56;5086769;28;20106;-21
2022/01/10 05:53:31;;;;;;;118.55;55.28;;;;;;;7.13;97.90;98763.13;5068578;28;20063;-20
2022/01/10 05:55:56;;;;;;;103.55;46.22;;;;;;;7.15;96.85;98772.50;5068917;28;20032;-20
2022/01/10 05:58:22;;;;;;;93.35;43.45;;;;;;;7.21;96.70;98771.59;5086916;28;20487;-20
2022/01/10 06:00:47;;;;;;;58.55;26.73;;;;;;;7.11;96.67;98767.84;5087125;28;20431;-20
2022/01/10 06:03:13;;;;;;;66.90;32.15;;;;;;;6.79;98.29;98744.28;5086800;28;20032;-20
2022/01/10 06:05:38;;;;;;;65.50;32.78;;;;;;;6.94;98.34;98773.00;5068470;28;20024;-20
2022/01/10 06:08:05;;;;;;;77.72;39.58;;;;;;;7.02;98.53;98764.75;5086834;28;20062;-20
2022/01/10 06:10:30;;;;;;;53.13;25.70;;;;;;;7.09;97.17;98768.09;5086410;28;20119;-19
2022/01/10 06:12:56;;;;;;;66.55;26.75;;;;;;;7.13;97.54;98777.22;5086576;28;20027;-20
2022/01/10 06:15:22;;;;;;;56.60;25.45;;;;;;;7.16;97.52;98784.69;5087111;28;20035;-20
2022/01/10 06:17:47;;;;;;;64.35;26.45;;;;;;;7.12;97.92;98780.88;5089969;28;20120;-20
2022/01/10 06:20:13;;;;;;;57.85;23.75;;;;;;;7.07;97.87;98772.81;5090464;28;20524;-20
2022/01/10 06:22:38;;;;;;;70.82;28.75;;;;;;;7.07;98.30;98788.72;5090494;28;20039;-20
2022/01/10 06:25:06;;;;;;;61.53;24.30;;;;;;;7.01;99.38;98789.66;5090029;28;20028;-20
2022/01/10 06:27:31;;;;;;;64.07;26.02;;;;;;;6.98;99.81;98795.38;5090223;28;20024;-21
2022/01/10 06:29:57;;;;;;;58.33;24.83;;;;;;;6.93;100.00;98790.78;5090401;28;20093;-21
2022/01/10 06:32:22;;;;;;;61.78;25.80;;;;;;;6.97;99.81;98793.78;5090142;28;20036;-20
2022/01/10 06:34:48;;;;;;;65.15;27.08;;;;;;;6.88;100.00;98789.81;5090194;28;20028;-22
2022/01/10 06:37:13;;;;;;;78.45;31.77;;;;;;;6.99;100.00;98808.41;5089841;28;20123;-20
2022/01/10 06:39:38;;;;;;;112.55;41.58;;;;;;;6.99;100.00;98802.31;5089855;28;20032;-20
2022/01/10 06:42:04;;;;;;;62.15;25.33;;;;;;;6.99;100.00;98797.81;5071777;28;20036;-21
2022/01/10 06:44:30;;;;;;;62.90;24.88;;;;;;;6.95;100.00;98806.44;5090006;28;20075;-21
2022/01/10 06:46:56;;;;;;;71.80;29.00;;;;;;;6.98;100.00;98800.69;5089961;28;20041;-21
2022/01/10 06:49:21;;;;;;;98.93;39.00;;;;;;;7.13;100.00;98803.72;5089894;28;20032;-21
2022/01/10 06:51:47;;;;;;;50.58;19.83;;;;;;;7.04;100.00;98794.47;5089842;28;20028;-20
2022/01/10 06:54:12;;;;;;;102.85;43.60;;;;;;;6.86;100.00;98808.59;5071346;28;20487;-20
2022/01/10 06:56:37;;;;;;;65.32;27.63;;;;;;;7.03;100.00;98808.78;5089996;28;20032;-20
2022/01/10 06:59:03;;;;;;;56.40;25.52;;;;;;;7.00;100.00;98817.16;5089576;28;20040;-20
2022/01/10 07:01:28;;;;;;;135.20;71.47;;;;;;;6.95;100.00;98817.06;5089724;28;20133;-21
2022/01/10 07:03:56;;;;;;;99.93;44.88;;;;;;;6.90;100.00;98815.06;5071538;28;20110;-21
2022/01/10 07:06:21;;;;;;;76.18;34.58;;;;;;;6.89;100.00;98823.25;5089406;28;20032;-21
2022/01/10 07:08:47;;;;;;;77.53;38.95;;;;;;;6.96;100.00;98821.31;5089390;28;20457;-20
2022/01/10 07:11:12;;;;;;;55.42;26.40;;;;;;;6.75;100.00;98807.53;5088923;28;20059;-20
2022/01/10 07:13:38;;;;;;;70.30;33.45;;;;;;;6.93;100.00;98829.72;5089312;28;20028;-20
2022/01/10 07:16:03;;;;;;;74.82;30.45;;;;;;;6.94;100.00;98821.53;5089370;28;20668;-21
2022/01/10 07:18:29;;;;;;;56.70;23.90;;;;;;;7.01;100.00;98824.91;5071021;28;20163;-20
2022/01/10 07:20:54;;;;;;;59.85;25.85;;;;;;;7.03;100.00;98819.38;5070938;28;20066;-20
2022/01/10 07:23:20;;;;;;;87.15;39.25;;;;;;;7.02;100.00;98823.84;5070722;28;20031;-22
2022/01/10 07:25:45;;;;;;;62.22;26.75;;;;;;;7.10;100.00;98819.28;5089480;28;20480;-21
2022/01/10 07:28:11;;;;;;;72.88;28.85;;;;;;;7.07;100.00;98825.84;5089182;28;20109;-20
2022/01/10 07:30:36;;;;;;;63.20;28.50;;;;;;;6.95;100.00;98811.75;5089274;28;20081;-20
2022/01/10 07:33:02;;;;;;;80.32;32.72;;;;;;;6.97;100.00;98823.75;5088887;28;20507;-20
2022/01/10 07:35:27;;;;;;;63.28;24.52;;;;;;;7.00;100.00;98825.13;5089202;28;20089;-20
2022/01/10 07:37:53;;;;;;;58.25;23.73;;;;;;;6.94;100.00;98804.81;5088755;28;20040;-19
2022/01/10 07:40:19;;;;;;;52.17;20.50;;;;;;;6.96;100.00;98823.94;5088631;28;20032;-20
2022/01/10 07:42:44;;;;;;;51.90;21.05;;;;;;;6.99;100.00;98828.81;5088945;28;20059;-21
2022/01/10 07:45:10;;;;;;;64.93;26.33;;;;;;;6.97;100.00;98826.38;5088660;28;20122;-21
2022/01/10 07:47:37;;;;;;;70.10;33.50;;;;;;;7.03;100.00;98824.69;5070789;28;20032;-20
2022/01/10 07:50:03;;;;;;;73.82;32.60;;;;;;;7.04;100.00;98828.94;5088540;28;20501;-20
2022/01/10 07:52:29;;;;;;;92.40;35.95;;;;;;;7.10;100.00;98829.88;5088460;28;20032;-20
2022/01/10 07:54:55;;;;;;;66.03;27.92;;;;;;;6.98;100.00;98827.19;5070634;28;20027;-20
2022/01/10 07:57:20;;;;;;;86.07;36.78;;;;;;;7.02;100.00;98820.41;5088418;28;20044;-21
2022/01/10 07:59:46;;;;;;;80.50;34.50;;;;;;;7.00;100.00;98830.41;5088484;28;20028;-21
2022/01/10 08:02:11;;;;;;;83.68;31.42;;;;;;;6.90;100.00;98817.72;5070441;28;20039;-20
2022/01/10 08:04:37;;;;;;;59.88;25.98;;;;;;;7.00;100.00;98836.53;5088350;28;20031;-20
2022/01/10 08:07:04;;;;;;;83.03;32.10;;;;;;;7.03;100.00;98835.28;5088013;28;20415;-20
2022/01/10 08:09:29;;;;;;;55.30;23.95;;;;;;;7.06;100.00;98840.13;5070861;28;20035;-20
2022/01/10 08:11:59;;;;;;;88.32;34.72;;;;;;;7.01;100.00;98834.72;5088315;28;20036;-20
2022/01/10 08:14:26;;;;;;;65.68;26.80;;;;;;;7.06;100.00;98824.22;5088469;28;20028;-20
2022/01/10 08:16:51;;;;;;;85.13;35.60;;;;;;;7.19;100.00;98855.84;5088162;28;20492;-21
2022/01/10 08:19:17;;;;;;;66.80;25.70;;;;;;;6.90;100.00;98830.97;5087733;28;20044;-20
2022/01/10 08:21:42;;;;;;;69.88;31.90;;;;;;;7.04;100.00;98850.16;5087789;28;20518;-20
2022/01/10 08:24:08;;;;;;;71.95;33.65;;;;;;;7.16;100.00;98856.28;5088331;28;20384;-20
2022/01/10 08:26:34;;;;;;;59.30;30.98;;;;;;;7.32;100.00;98854.84;5087793;28;20081;-20
2022/01/10 08:29:00;;;;;;;55.63;25.52;;;;;;;7.19;100.00;98855.84;5088035;28;20044;-20
2022/01/10 08:31:25;;;;;;;49.15;24.55;;;;;;;7.16;100.00;98839.59;5087916;28;20047;-20
2022/01/10 08:33:51;;;;;;;48.78;24.10;;;;;;;7.11;100.00;98848.22;5088003;28;20031;-20
2022/01/10 08:36:17;;;;;;;56.22;25.98;;;;;;;7.13;100.00;98851.44;5069415;28;20046;-21
2022/01/10 08:38:42;;;;;;;71.55;31.42;;;;;;;7.19;100.00;98847.91;5087456;28;20032;-20
2022/01/10 08:41:08;;;;;;;99.47;46.17;;;;;;;7.27;100.00;98852.03;5087555;28;20093;-21
2022/01/10 08:43:33;;;;;;;45.92;20.90;;;;;;;7.14;100.00;98853.06;5087907;28;20020;-21
2022/01/10 08:45:59;;;;;;;60.08;28.95;;;;;;;7.21;100.00;98858.25;5087652;28;20031;-21
2022/01/10 08:48:24;;;;;;;60.33;29.67;;;;;;;7.16;100.00;98856.28;5084535;28;20109;-20
2022/01/10 08:50:50;;;;;;;97.50;47.75;;;;;;;7.18;100.00;98845.47;5078701;28;20039;-20
2022/01/10 08:53:15;;;;;;;60.08;28.90;;;;;;;7.32;100.00;98844.22;5087676;28;20024;-20
2022/01/10 08:55:40;;;;;;;80.53;39.70;;;;;;;7.39;100.00;98850.22;5087391;28;20040;-20
2022/01/10 08:58:06;;;;;;;49.78;20.63;;;;;;;7.18;100.00;98833.00;5087510;28;20028;-20
2022/01/10 09:00:31;;;;;;;47.10;22.55;;;;;;;7.16;100.00;98845.69;5087495;28;20435;-20
2022/01/10 09:02:57;;;;;;;54.05;25.58;;;;;;;7.36;100.00;98837.44;5087251;28;20440;-21
2022/01/10 09:05:22;;;;;;;59.70;28.08;;;;;;;7.38;100.00;98842.53;5086897;28;20464;-20
2022/01/10 09:07:48;;;;;;;34.88;17.40;;;;;;;7.53;100.00;98842.88;5087158;28;20032;-21
2022/01/10 09:10:13;;;;;;;52.50;27.73;;;;;;;7.50;100.00;98827.44;5087420;28;20039;-21
2022/01/10 09:12:39;;;;;;;28.90;13.63;;;;;;;7.53;100.00;98824.31;5069517;28;20056;-20
2022/01/10 09:15:08;;;;;;;86.57;37.97;;;;;;;7.43;100.00;98835.47;5087149;28;20039;-20
2022/01/10 09:17:34;;;;;;;52.03;31.20;;;;;;;7.51;100.00;98837.00;5087310;28;20486;-21
2022/01/10 09:20:00;;;;;;;33.80;19.23;;;;;;;7.43;100.00;98832.03;5087011;28;20044;-21
2022/01/10 09:22:25;;;;;;;27.30;13.60;;;;;;;7.36;100.00;98818.06;5087439;28;20048;-20
2022/01/10 09:24:51;;;;;;;24.95;15.82;;;;;;;7.46;100.00;98834.22;5087129;28;20028;-20
2022/01/10 09:27:16;;;;;;;176.10;92.63;;;;;;;7.42;100.00;98835.72;5086837;28;20027;-20
2022/01/10 09:29:42;;;;;;;49.47;29.83;;;;;;;7.72;100.00;98840.13;5069124;28;20036;-20
2022/01/10 09:32:08;;;;;;;53.70;30.75;;;;;;;8.98;99.90;98836.91;5087162;28;20531;-20
2022/01/10 09:34:34;;;;;;;35.70;26.60;;;;;;;8.88;96.63;98839.38;5068781;28;20486;-20
2022/01/10 09:36:59;;;;;;;34.75;22.20;;;;;;;8.83;95.21;98822.28;5087089;28;20103;-20
2022/01/10 09:39:26;;;;;;;38.75;18.33;;;;;;;9.33;92.43;98838.56;5087259;28;20039;-20
2022/01/10 09:41:52;;;;;;;41.33;23.42;;;;;;;9.33;92.07;98841.22;5087350;28;20032;-20
2022/01/10 09:44:17;;;;;;;41.67;21.85;;;;;;;9.97;89.07;98836.38;5087192;28;20036;-20
2022/01/10 09:46:44;;;;;;;36.90;19.38;;;;;;;9.57;89.54;98834.72;5068979;28;20035;-20
2022/01/10 09:49:09;;;;;;;33.50;18.35;;;;;;;8.82;91.95;98838.47;5068465;28;20058;-25
2022/01/10 09:51:35;;;;;;;33.67;18.25;;;;;;;9.47;91.76;98831.88;5088566;28;20056;-21
2022/01/10 09:54:02;;;;;;;28.67;16.38;;;;;;;9.60;88.59;98812.94;5090999;28;20773;-20
2022/01/10 09:56:28;;;;;;;32.17;16.67;;;;;;;9.76;86.81;98823.81;5091205;28;20028;-20
2022/01/10 09:58:53;;;;;;;35.65;19.95;;;;;;;9.55;90.75;98818.16;5091135;28;20032;-21
2022/01/10 10:01:19;;;;;;;36.20;18.67;;;;;;;9.27;88.09;98828.88;5090602;28;20036;-20
2022/01/10 10:03:48;;;;;;;38.65;20.58;;;;;;;8.38;93.74;98817.66;5090802;28;20096;-21
2022/01/10 10:06:14;;;;;;;38.70;22.17;;;;;;;7.91;97.45;98803.69;5090915;28;20558;-20
2022/01/10 10:08:40;;;;;;;32.75;15.75;;;;;;;7.96;98.26;98825.00;5072752;28;20491;-21
2022/01/10 10:11:09;;;;;;;45.60;24.15;;;;;;;8.01;98.64;98835.75;5090052;28;20035;-20
2022/01/10 10:13:41;;;;;;;41.50;23.23;;;;;;;7.74;100.00;98827.44;5090601;28;20059;-20
2022/01/10 10:16:12;;;;;;;49.80;24.42;;;;;;;7.66;100.00;98828.56;5072522;28;20024;-20
2022/01/10 10:18:38;;;;;;;48.72;24.80;;;;;;;7.68;100.00;98818.53;5073220;28;20056;-20
2022/01/10 10:21:03;;;;;;;48.10;22.52;;;;;;;7.83;100.00;98824.22;5090260;28;20093;-20
2022/01/10 10:23:30;;;;;;;48.53;25.42;;;;;;;7.88;100.00;98823.50;5072762;28;20035;-21
2022/01/10 10:25:55;;;;;;;38.65;19.02;;;;;;;7.80;100.00;98822.00;5090642;28;20031;-20
2022/01/10 10:28:21;;;;;;;40.25;18.38;;;;;;;7.67;100.00;98810.84;5090247;28;20032;-21
2022/01/10 10:30:47;;;;;;;70.03;38.45;;;;;;;7.82;100.00;98816.47;5055188;28;20498;-20
2022/01/10 10:33:17;;;;;;;42.88;22.23;;;;;;;8.04;100.00;98820.16;5089978;28;20074;-20
2022/01/10 10:35:44;;;;;;;31.33;14.85;;;;;;;7.77;100.00;98797.78;5090350;28;20053;-20
2022/01/10 10:38:09;;;;;;;42.60;21.73;;;;;;;7.73;100.00;98810.72;5090253;28;20051;-21
2022/01/10 10:40:41;;;;;;;48.53;24.17;;;;;;;7.75;100.00;98807.84;5090130;28;20081;-21
2022/01/10 10:43:08;;;;;;;38.67;22.17;;;;;;;7.56;100.00;98797.34;5071494;28;20048;-20
2022/01/10 10:45:33;;;;;;;43.97;26.10;;;;;;;7.67;100.00;98808.97;5089788;28;20032;-22
2022/01/10 10:48:04;;;;;;;51.60;26.38;;;;;;;7.67;100.00;98803.66;5089909;28;20032;-21
2022/01/10 10:50:33;;;;;;;45.80;24.00;;;;;;;7.83;100.00;98812.78;5056753;28;20035;-20
2022/01/10 10:52:59;;;;;;;48.03;24.27;;;;;;;7.82;100.00;98811.16;5089853;28;20032;-21
2022/01/10 10:55:24;;;;;;;40.55;21.75;;;;;;;7.61;100.00;98800.09;5054932;28;20036;-22
2022/01/10 10:57:50;;;;;;;26.63;14.20;;;;;;;7.68;100.00;98815.88;5071365;28;20068;-20
2022/01/10 11:00:16;;;;;;;28.73;15.20;;;;;;;7.85;100.00;98816.03;5089667;28;20039;-20
2022/01/10 11:02:42;;;;;;;29.02;14.30;;;;;;;7.85;100.00;98816.81;5089039;28;20024;-20
2022/01/10 11:05:08;;;;;;;34.58;18.52;;;;;;;7.92;100.00;98815.91;5089246;28;20028;-21
2022/01/10 11:07:35;;;;;;;31.10;18.27;;;;;;;7.75;100.00;98799.88;5089791;28;20797;-20
2022/01/10 11:10:04;;;;;;;40.28;20.60;;;;;;;7.78;100.00;98815.31;5089332;28;20027;-20
2022/01/10 11:12:30;;;;;;;29.38;14.95;;;;;;;7.69;100.00;98790.19;5089289;28;20035;-21
2022/01/10 11:14:56;;;;;;;31.48;16.75;;;;;;;7.60;100.00;98787.03;5071277;28;20016;-20
2022/01/10 11:17:22;;;;;;;26.27;12.52;;;;;;;7.85;100.00;98831.94;5080337;28;20043;-21
2022/01/10 11:20:11;;;;;;;54.33;21.27;;;;;;;7.84;100.00;98819.69;5077234;28;20045;-20
2022/01/10 11:22:38;;;;;;;40.67;17.30;;;;;;;7.68;100.00;98802.63;5078737;28;20044;-20
2022/01/10 11:25:04;;;;;;;25.33;12.95;;;;;;;7.76;100.00;98822.69;5070639;28;20024;-21
2022/01/10 11:27:32;;;;;;;21.77;11.73;;;;;;;7.72;100.00;98801.13;5089232;28;20043;-20